UAE793 OMDB-FNBJ
Flight info
| Callsign | UAE793 |
|---|---|
| Flight time | N/A |
| Altitude | 32000 |
| Route | ANVIX R401 GIDIS G783 UKRAG/N0500F330 L710 KUKDI/N0498F320 B400 IMKAD/N0497F340 B400 RIGAM B404 DEMGO UB404 HARGA UM216 PATAR UN553 NALOS UT136 BUN UH1 RURIT/N0487F360 UH1 KGI UB535 KSA UA611 DISPO |
| Aircraft | B77W/H-SDE2E3GHIJ1J3J4J5M1P2RWXYZ/LB1D1 |
Departure
| Time | 2026-04-30 08:31 |
|---|---|
| Airport | Dubai International Airport (OMDB) |
Arrival
| Time | N/A |
|---|---|
| Airport | Dr. Antonio Agostinho Neto International Airport (FNBJ) |
| Time | Latitude | Longitude | Altitude | Speed | Heading |
|---|---|---|---|---|---|
| 2026-04-30 07:32 | 25.24655 | 55.36303 | 34 ft | 0 kts | 31° |
| 2026-04-30 08:05 | 25.24648 | 55.36299 | 33 ft | 2 kts | 31° |
| 2026-04-30 08:05 | 25.24636 | 55.36290 | 33 ft | 2 kts | 31° |
| 2026-04-30 08:05 | 25.24623 | 55.36282 | 33 ft | 2 kts | 31° |
| 2026-04-30 08:05 | 25.24610 | 55.36273 | 33 ft | 2 kts | 31° |
| 2026-04-30 08:06 | 25.24602 | 55.36268 | 33 ft | 2 kts | 28° |
| 2026-04-30 08:06 | 25.24588 | 55.36266 | 33 ft | 2 kts | 332° |
| 2026-04-30 08:06 | 25.24579 | 55.36274 | 33 ft | 1 kts | 299° |
| 2026-04-30 08:06 | 25.24577 | 55.36278 | 33 ft | 0 kts | 301° |
| 2026-04-30 08:09 | 25.24579 | 55.36275 | 33 ft | 2 kts | 301° |
| 2026-04-30 08:10 | 25.24598 | 55.36239 | 33 ft | 8 kts | 299° |
| 2026-04-30 08:10 | 25.24640 | 55.36156 | 31 ft | 15 kts | 300° |
| 2026-04-30 08:10 | 25.24706 | 55.36038 | 28 ft | 19 kts | 302° |
| 2026-04-30 08:10 | 25.24776 | 55.35914 | 30 ft | 17 kts | 301° |
| 2026-04-30 08:11 | 25.24834 | 55.35807 | 32 ft | 15 kts | 301° |
| 2026-04-30 08:11 | 25.24893 | 55.35709 | 31 ft | 15 kts | 306° |
| 2026-04-30 08:11 | 25.24956 | 55.35612 | 32 ft | 14 kts | 303° |
| 2026-04-30 08:11 | 25.25005 | 55.35523 | 33 ft | 13 kts | 301° |
| 2026-04-30 08:12 | 25.25055 | 55.35433 | 32 ft | 14 kts | 301° |
| 2026-04-30 08:12 | 25.25111 | 55.35333 | 31 ft | 16 kts | 301° |
| 2026-04-30 08:12 | 25.25177 | 55.35228 | 28 ft | 18 kts | 307° |
| 2026-04-30 08:12 | 25.25248 | 55.35113 | 28 ft | 16 kts | 301° |
| 2026-04-30 08:13 | 25.25303 | 55.35012 | 31 ft | 14 kts | 301° |
| 2026-04-30 08:13 | 25.25356 | 55.34927 | 34 ft | 11 kts | 315° |
| 2026-04-30 08:13 | 25.25430 | 55.34897 | 35 ft | 12 kts | 5° |
| 2026-04-30 08:13 | 25.25509 | 55.34933 | 36 ft | 12 kts | 30° |
| 2026-04-30 08:14 | 25.25588 | 55.34985 | 36 ft | 13 kts | 31° |
| 2026-04-30 08:14 | 25.25675 | 55.35043 | 36 ft | 14 kts | 31° |
| 2026-04-30 08:14 | 25.25739 | 55.35099 | 36 ft | 8 kts | 78° |
| 2026-04-30 08:14 | 25.25724 | 55.35163 | 36 ft | 8 kts | 109° |
| 2026-04-30 08:15 | 25.25749 | 55.35208 | 37 ft | 7 kts | 30° |
| 2026-04-30 08:15 | 25.25800 | 55.35241 | 37 ft | 9 kts | 31° |
| 2026-04-30 08:15 | 25.25865 | 55.35284 | 36 ft | 11 kts | 31° |
| 2026-04-30 08:15 | 25.25939 | 55.35336 | 36 ft | 13 kts | 38° |
| 2026-04-30 08:16 | 25.25988 | 55.35423 | 37 ft | 13 kts | 73° |
| 2026-04-30 08:16 | 25.25984 | 55.35529 | 39 ft | 14 kts | 110° |
| 2026-04-30 08:16 | 25.25931 | 55.35636 | 39 ft | 16 kts | 121° |
| 2026-04-30 08:16 | 25.25869 | 55.35747 | 41 ft | 16 kts | 121° |
| 2026-04-30 08:17 | 25.25810 | 55.35853 | 42 ft | 15 kts | 121° |
| 2026-04-30 08:17 | 25.25752 | 55.35958 | 42 ft | 16 kts | 121° |
| 2026-04-30 08:17 | 25.25693 | 55.36065 | 43 ft | 16 kts | 121° |
| 2026-04-30 08:17 | 25.25635 | 55.36169 | 45 ft | 15 kts | 121° |
| 2026-04-30 08:18 | 25.25576 | 55.36277 | 45 ft | 17 kts | 121° |
| 2026-04-30 08:18 | 25.25511 | 55.36394 | 45 ft | 18 kts | 121° |
| 2026-04-30 08:18 | 25.25446 | 55.36510 | 46 ft | 17 kts | 121° |
| 2026-04-30 08:18 | 25.25381 | 55.36628 | 48 ft | 17 kts | 121° |
| 2026-04-30 08:19 | 25.25318 | 55.36742 | 49 ft | 17 kts | 121° |
| 2026-04-30 08:19 | 25.25256 | 55.36855 | 50 ft | 17 kts | 121° |
| 2026-04-30 08:19 | 25.25196 | 55.36961 | 51 ft | 15 kts | 121° |
| 2026-04-30 08:19 | 25.25142 | 55.37059 | 52 ft | 14 kts | 121° |
| 2026-04-30 08:20 | 25.25091 | 55.37150 | 52 ft | 13 kts | 121° |
| 2026-04-30 08:20 | 25.25047 | 55.37230 | 52 ft | 11 kts | 121° |
| 2026-04-30 08:20 | 25.25008 | 55.37301 | 52 ft | 10 kts | 121° |
| 2026-04-30 08:20 | 25.24971 | 55.37368 | 52 ft | 10 kts | 121° |
| 2026-04-30 08:21 | 25.24932 | 55.37437 | 54 ft | 11 kts | 121° |
| 2026-04-30 08:21 | 25.24890 | 55.37513 | 55 ft | 12 kts | 121° |
| 2026-04-30 08:21 | 25.24838 | 55.37608 | 55 ft | 15 kts | 121° |
| 2026-04-30 08:21 | 25.24775 | 55.37722 | 55 ft | 18 kts | 121° |
| 2026-04-30 08:22 | 25.24711 | 55.37837 | 55 ft | 17 kts | 121° |
| 2026-04-30 08:22 | 25.24665 | 55.37922 | 57 ft | 5 kts | 100° |
| 2026-04-30 08:22 | 25.24678 | 55.37952 | 57 ft | 3 kts | 44° |
| 2026-04-30 08:22 | 25.24686 | 55.37959 | 57 ft | 0 kts | 37° |
| 2026-04-30 08:29 | 25.24699 | 55.37970 | 57 ft | 4 kts | 37° |
| 2026-04-30 08:29 | 25.24733 | 55.37997 | 58 ft | 7 kts | 34° |
| 2026-04-30 08:29 | 25.24786 | 55.38031 | 58 ft | 7 kts | 20° |
| 2026-04-30 08:29 | 25.24815 | 55.38008 | 58 ft | 6 kts | 305° |
| 2026-04-30 08:30 | 25.24895 | 55.37870 | 56 ft | 48 kts | 301° |
| 2026-04-30 08:30 | 25.25186 | 55.37343 | 52 ft | 112 kts | 301° |
| 2026-04-30 08:30 | 25.25704 | 55.36410 | 46 ft | 169 kts | 301° |
| 2026-04-30 08:30 | 25.26394 | 55.35181 | 252 ft | 200 kts | 302° |
| 2026-04-30 08:31 | 25.27108 | 55.33869 | 878 ft | 207 kts | 298° |
| 2026-04-30 08:31 | 25.27512 | 55.32383 | 1616 ft | 202 kts | 272° |
| 2026-04-30 08:31 | 25.27580 | 55.30889 | 2211 ft | 194 kts | 287° |
| 2026-04-30 08:31 | 25.27943 | 55.29442 | 2678 ft | 194 kts | 287° |
| 2026-04-30 08:32 | 25.28296 | 55.28019 | 3106 ft | 196 kts | 287° |
| 2026-04-30 08:32 | 25.28442 | 55.26504 | 3485 ft | 202 kts | 259° |
| 2026-04-30 08:32 | 25.27841 | 55.25094 | 3880 ft | 206 kts | 240° |
| 2026-04-30 08:32 | 25.27142 | 55.23724 | 4330 ft | 206 kts | 246° |
| 2026-04-30 08:33 | 25.26520 | 55.22319 | 4778 ft | 206 kts | 247° |
| 2026-04-30 08:33 | 25.25910 | 55.20887 | 5197 ft | 209 kts | 247° |
| 2026-04-30 08:33 | 25.25270 | 55.19376 | 5366 ft | 226 kts | 246° |
| 2026-04-30 08:33 | 25.24346 | 55.17896 | 5604 ft | 241 kts | 224° |
| 2026-04-30 08:34 | 25.22884 | 55.16952 | 6061 ft | 248 kts | 198° |
| 2026-04-30 08:34 | 25.21128 | 55.16745 | 6413 ft | 260 kts | 178° |
| 2026-04-30 08:34 | 25.19360 | 55.17146 | 6918 ft | 266 kts | 155° |
| 2026-04-30 08:34 | 25.17875 | 55.18376 | 7324 ft | 277 kts | 130° |
| 2026-04-30 08:35 | 25.16842 | 55.20279 | 7565 ft | 294 kts | 117° |
| 2026-04-30 08:35 | 25.15949 | 55.22306 | 8075 ft | 298 kts | 118° |
| 2026-04-30 08:35 | 25.15007 | 55.24350 | 8646 ft | 301 kts | 119° |
| 2026-04-30 08:35 | 25.14037 | 55.26394 | 9230 ft | 303 kts | 120° |
| 2026-04-30 08:36 | 25.13056 | 55.28440 | 9772 ft | 306 kts | 120° |
| 2026-04-30 08:36 | 25.12054 | 55.30523 | 10365 ft | 308 kts | 120° |
| 2026-04-30 08:36 | 25.11050 | 55.32609 | 10976 ft | 310 kts | 120° |
| 2026-04-30 08:36 | 25.10063 | 55.34755 | 11532 ft | 314 kts | 116° |
| 2026-04-30 08:37 | 25.09183 | 55.36948 | 12112 ft | 317 kts | 115° |
| 2026-04-30 08:37 | 25.08281 | 55.39195 | 12719 ft | 319 kts | 116° |
| 2026-04-30 08:37 | 25.07377 | 55.41412 | 13324 ft | 322 kts | 116° |
| 2026-04-30 08:37 | 25.06464 | 55.43710 | 13738 ft | 333 kts | 115° |
| 2026-04-30 08:38 | 25.05559 | 55.46088 | 14013 ft | 348 kts | 115° |
| 2026-04-30 08:38 | 25.04594 | 55.48613 | 14286 ft | 364 kts | 115° |
| 2026-04-30 08:38 | 25.03585 | 55.51235 | 14590 ft | 380 kts | 115° |
| 2026-04-30 08:38 | 25.02524 | 55.53988 | 14921 ft | 395 kts | 115° |
| 2026-04-30 08:39 | 25.01267 | 55.56726 | 15242 ft | 408 kts | 122° |
| 2026-04-30 08:39 | 24.99794 | 55.59473 | 15641 ft | 419 kts | 123° |
| 2026-04-30 08:39 | 24.98308 | 55.62218 | 16217 ft | 425 kts | 123° |
| 2026-04-30 08:39 | 24.96795 | 55.65015 | 16847 ft | 429 kts | 124° |
| 2026-04-30 08:40 | 24.95243 | 55.67883 | 17468 ft | 434 kts | 124° |
| 2026-04-30 08:40 | 24.93641 | 55.70668 | 18030 ft | 436 kts | 129° |
| 2026-04-30 08:40 | 24.91847 | 55.73401 | 18575 ft | 441 kts | 130° |
| 2026-04-30 08:40 | 24.90040 | 55.76122 | 19142 ft | 445 kts | 130° |
| 2026-04-30 08:41 | 24.88196 | 55.78896 | 19756 ft | 449 kts | 130° |
| 2026-04-30 08:41 | 24.86357 | 55.81664 | 20319 ft | 453 kts | 130° |
| 2026-04-30 08:41 | 24.84470 | 55.84503 | 20860 ft | 458 kts | 130° |
| 2026-04-30 08:41 | 24.82526 | 55.87241 | 21319 ft | 460 kts | 137° |
| 2026-04-30 08:42 | 24.80194 | 55.89654 | 21810 ft | 458 kts | 147° |
| 2026-04-30 08:42 | 24.77580 | 55.91583 | 22304 ft | 455 kts | 157° |
| 2026-04-30 08:42 | 24.74712 | 55.93016 | 22868 ft | 448 kts | 167° |
| 2026-04-30 08:42 | 24.71699 | 55.93915 | 23419 ft | 442 kts | 175° |
| 2026-04-30 08:43 | 24.68673 | 55.94277 | 23847 ft | 440 kts | 184° |
| 2026-04-30 08:43 | 24.65633 | 55.94122 | 24250 ft | 437 kts | 192° |
| 2026-04-30 08:43 | 24.62670 | 55.93469 | 24670 ft | 435 kts | 200° |
| 2026-04-30 08:43 | 24.59827 | 55.92318 | 25114 ft | 433 kts | 208° |
| 2026-04-30 08:44 | 24.57178 | 55.90700 | 25522 ft | 432 kts | 217° |
| 2026-04-30 08:44 | 24.54808 | 55.88681 | 25888 ft | 433 kts | 224° |
| 2026-04-30 08:44 | 24.52586 | 55.86466 | 26267 ft | 436 kts | 224° |
| 2026-04-30 08:44 | 24.50333 | 55.84218 | 26671 ft | 439 kts | 224° |
| 2026-04-30 08:45 | 24.48057 | 55.81971 | 27054 ft | 442 kts | 224° |
| 2026-04-30 08:45 | 24.45764 | 55.79723 | 27443 ft | 445 kts | 224° |
| 2026-04-30 08:45 | 24.43438 | 55.77459 | 27793 ft | 448 kts | 224° |
| 2026-04-30 08:45 | 24.41082 | 55.75174 | 28105 ft | 452 kts | 223° |
| 2026-04-30 08:46 | 24.38719 | 55.72890 | 28431 ft | 455 kts | 223° |
| 2026-04-30 08:46 | 24.36328 | 55.70585 | 28824 ft | 457 kts | 223° |
| 2026-04-30 08:46 | 24.33942 | 55.68289 | 29257 ft | 459 kts | 223° |
| 2026-04-30 08:46 | 24.31544 | 55.65984 | 29752 ft | 459 kts | 223° |
| 2026-04-30 08:47 | 24.29152 | 55.63710 | 30302 ft | 458 kts | 221° |
| 2026-04-30 08:47 | 24.26528 | 55.61700 | 30901 ft | 457 kts | 213° |
| 2026-04-30 08:47 | 24.23710 | 55.60157 | 31415 ft | 459 kts | 205° |
| 2026-04-30 08:47 | 24.20660 | 55.59034 | 31806 ft | 461 kts | 199° |
| 2026-04-30 08:48 | 24.17569 | 55.58098 | 31853 ft | 462 kts | 198° |
| 2026-04-30 08:48 | 24.11352 | 55.56248 | 31863 ft | 460 kts | 198° |
| 2026-04-30 08:49 | 24.05178 | 55.54408 | 31865 ft | 461 kts | 199° |
| 2026-04-30 08:49 | 23.98986 | 55.52564 | 31856 ft | 462 kts | 198° |
| 2026-04-30 08:50 | 23.92778 | 55.50721 | 31853 ft | 462 kts | 198° |
| 2026-04-30 08:50 | 23.86576 | 55.48881 | 31853 ft | 460 kts | 198° |
| 2026-04-30 08:51 | 23.80359 | 55.47035 | 31850 ft | 463 kts | 198° |
| 2026-04-30 08:51 | 23.74158 | 55.45195 | 31845 ft | 461 kts | 198° |
| 2026-04-30 08:52 | 23.67930 | 55.43348 | 31842 ft | 462 kts | 198° |
| 2026-04-30 08:52 | 23.61711 | 55.41505 | 31839 ft | 463 kts | 198° |
| 2026-04-30 08:53 | 23.55460 | 55.39710 | 31828 ft | 465 kts | 193° |
| 2026-04-30 08:53 | 23.48978 | 55.39449 | 31821 ft | 473 kts | 176° |
| 2026-04-30 08:54 | 23.42502 | 55.41066 | 31827 ft | 480 kts | 169° |
| 2026-04-30 08:54 | 23.36065 | 55.43067 | 31823 ft | 479 kts | 167° |
| 2026-04-30 08:55 | 23.29691 | 55.45103 | 31818 ft | 478 kts | 167° |
| 2026-04-30 08:55 | 23.23301 | 55.47133 | 31815 ft | 478 kts | 167° |
| 2026-04-30 08:56 | 23.16918 | 55.49152 | 31815 ft | 477 kts | 167° |
| 2026-04-30 08:56 | 23.10496 | 55.51178 | 31811 ft | 479 kts | 167° |
| 2026-04-30 08:57 | 23.04097 | 55.53194 | 31814 ft | 479 kts | 167° |
| 2026-04-30 08:57 | 22.97682 | 55.55177 | 31814 ft | 479 kts | 167° |
| 2026-04-30 08:58 | 22.91216 | 55.57160 | 31810 ft | 480 kts | 167° |
| 2026-04-30 08:58 | 22.84786 | 55.59132 | 31814 ft | 479 kts | 167° |
| 2026-04-30 08:59 | 22.78394 | 55.61090 | 31810 ft | 480 kts | 167° |
| 2026-04-30 08:59 | 22.71970 | 55.63057 | 31809 ft | 478 kts | 167° |
| 2026-04-30 09:00 | 22.65572 | 55.65014 | 31807 ft | 479 kts | 167° |
| 2026-04-30 09:00 | 22.59141 | 55.66981 | 31805 ft | 479 kts | 167° |
| 2026-04-30 09:01 | 22.52706 | 55.68951 | 31803 ft | 480 kts | 167° |
| 2026-04-30 09:01 | 22.46266 | 55.70920 | 31797 ft | 479 kts | 167° |
| 2026-04-30 09:02 | 22.36621 | 55.73866 | 31799 ft | 480 kts | 167° |
| 2026-04-30 09:02 | 22.30179 | 55.75831 | 31809 ft | 481 kts | 167° |
| 2026-04-30 09:03 | 22.23699 | 55.77352 | 31812 ft | 475 kts | 176° |
| 2026-04-30 09:03 | 22.17044 | 55.78029 | 31808 ft | 477 kts | 177° |
| 2026-04-30 09:04 | 22.10439 | 55.78682 | 31808 ft | 477 kts | 177° |
| 2026-04-30 09:04 | 22.03838 | 55.79336 | 31802 ft | 476 kts | 177° |
| 2026-04-30 09:05 | 21.97248 | 55.79990 | 31800 ft | 477 kts | 177° |
| 2026-04-30 09:05 | 21.90619 | 55.80647 | 31803 ft | 476 kts | 177° |
| 2026-04-30 09:06 | 21.84010 | 55.81302 | 31806 ft | 476 kts | 177° |
| 2026-04-30 09:06 | 21.77417 | 55.81955 | 31807 ft | 476 kts | 177° |
| 2026-04-30 09:07 | 21.70769 | 55.82613 | 31807 ft | 476 kts | 177° |
| 2026-04-30 09:07 | 21.64167 | 55.83263 | 31804 ft | 477 kts | 177° |
| 2026-04-30 09:08 | 21.57526 | 55.83915 | 31801 ft | 476 kts | 177° |
| 2026-04-30 09:08 | 21.50916 | 55.84563 | 31802 ft | 476 kts | 177° |
| 2026-04-30 09:09 | 21.44355 | 55.85207 | 31803 ft | 475 kts | 177° |
| 2026-04-30 09:09 | 21.37725 | 55.85856 | 31806 ft | 476 kts | 177° |
| 2026-04-30 09:10 | 21.31129 | 55.86502 | 31805 ft | 474 kts | 177° |
| 2026-04-30 09:10 | 21.24563 | 55.87143 | 31811 ft | 475 kts | 177° |
| 2026-04-30 09:11 | 21.17967 | 55.87786 | 31809 ft | 474 kts | 177° |
| 2026-04-30 09:11 | 21.11387 | 55.88426 | 31811 ft | 475 kts | 177° |
| 2026-04-30 09:12 | 21.04774 | 55.89069 | 31812 ft | 475 kts | 177° |
| 2026-04-30 09:12 | 20.98165 | 55.89712 | 31824 ft | 474 kts | 177° |
| 2026-04-30 09:13 | 20.91567 | 55.90352 | 31829 ft | 475 kts | 176° |
| 2026-04-30 09:13 | 20.84977 | 55.90992 | 31826 ft | 475 kts | 177° |
| 2026-04-30 09:14 | 20.78415 | 55.91629 | 31821 ft | 474 kts | 177° |
| 2026-04-30 09:14 | 20.71822 | 55.92268 | 31822 ft | 474 kts | 177° |
| 2026-04-30 09:15 | 20.65253 | 55.92904 | 31823 ft | 473 kts | 177° |
| 2026-04-30 09:15 | 20.58642 | 55.93543 | 31822 ft | 475 kts | 177° |
| 2026-04-30 09:16 | 20.52050 | 55.94181 | 31820 ft | 475 kts | 177° |
| 2026-04-30 09:16 | 20.45427 | 55.94820 | 31822 ft | 475 kts | 177° |
| 2026-04-30 09:17 | 20.38845 | 55.95456 | 31821 ft | 474 kts | 177° |
| 2026-04-30 09:17 | 20.32279 | 55.96089 | 31822 ft | 474 kts | 177° |
| 2026-04-30 09:18 | 20.25687 | 55.96719 | 31824 ft | 474 kts | 177° |
| 2026-04-30 09:18 | 20.19085 | 55.97347 | 31820 ft | 474 kts | 177° |
| 2026-04-30 09:19 | 20.12497 | 55.97974 | 31826 ft | 474 kts | 177° |
| 2026-04-30 09:19 | 20.05901 | 55.98533 | 31825 ft | 474 kts | 180° |
| 2026-04-30 09:20 | 19.99302 | 55.98661 | 31826 ft | 473 kts | 181° |
| 2026-04-30 09:20 | 19.92678 | 55.98794 | 31829 ft | 473 kts | 181° |
| 2026-04-30 09:21 | 19.86098 | 55.98941 | 31832 ft | 473 kts | 180° |
| 2026-04-30 09:21 | 19.79475 | 55.99097 | 31832 ft | 474 kts | 181° |
| 2026-04-30 09:22 | 19.72881 | 55.99256 | 31842 ft | 474 kts | 181° |
| 2026-04-30 09:22 | 19.66287 | 55.99418 | 31846 ft | 473 kts | 181° |
| 2026-04-30 09:23 | 19.59704 | 55.99581 | 31847 ft | 474 kts | 181° |
| 2026-04-30 09:23 | 19.53078 | 55.99435 | 31837 ft | 471 kts | 190° |
| 2026-04-30 09:24 | 19.46839 | 55.97416 | 31831 ft | 468 kts | 207° |
| 2026-04-30 09:24 | 19.41162 | 55.94073 | 31832 ft | 466 kts | 211° |
| 2026-04-30 09:25 | 19.35522 | 55.90652 | 31829 ft | 467 kts | 211° |
| 2026-04-30 09:25 | 19.29889 | 55.87239 | 31830 ft | 467 kts | 210° |
| 2026-04-30 09:26 | 19.24236 | 55.83817 | 31827 ft | 466 kts | 211° |
| 2026-04-30 09:26 | 19.18555 | 55.80380 | 31828 ft | 468 kts | 210° |
| 2026-04-30 09:27 | 19.12930 | 55.76981 | 31830 ft | 466 kts | 210° |
| 2026-04-30 09:27 | 19.07286 | 55.73573 | 31834 ft | 467 kts | 210° |
| 2026-04-30 09:28 | 19.01649 | 55.70173 | 31833 ft | 466 kts | 210° |
| 2026-04-30 09:28 | 18.96000 | 55.66767 | 31836 ft | 465 kts | 210° |
| 2026-04-30 09:29 | 18.90368 | 55.63376 | 31843 ft | 466 kts | 210° |
| 2026-04-30 09:29 | 18.84695 | 55.59961 | 31844 ft | 465 kts | 210° |
| 2026-04-30 09:30 | 18.79074 | 55.56582 | 31851 ft | 466 kts | 210° |
| 2026-04-30 09:30 | 18.73458 | 55.53207 | 31850 ft | 465 kts | 210° |
| 2026-04-30 09:31 | 18.67832 | 55.49829 | 31852 ft | 465 kts | 210° |
| 2026-04-30 09:31 | 18.62183 | 55.46440 | 31859 ft | 464 kts | 210° |
| 2026-04-30 09:32 | 18.56585 | 55.43085 | 31857 ft | 464 kts | 210° |
| 2026-04-30 09:32 | 18.50962 | 55.39716 | 31861 ft | 464 kts | 210° |
| 2026-04-30 09:33 | 18.45329 | 55.36345 | 31863 ft | 463 kts | 210° |
| 2026-04-30 09:33 | 18.39717 | 55.32988 | 31872 ft | 463 kts | 210° |
| 2026-04-30 09:34 | 18.34110 | 55.29638 | 31870 ft | 463 kts | 210° |
| 2026-04-30 09:34 | 18.28494 | 55.26286 | 31874 ft | 463 kts | 210° |
| 2026-04-30 09:35 | 18.22892 | 55.22944 | 31868 ft | 463 kts | 210° |
| 2026-04-30 09:35 | 18.17290 | 55.19605 | 31868 ft | 462 kts | 210° |
| 2026-04-30 09:36 | 18.11527 | 55.16550 | 31877 ft | 463 kts | 204° |
| 2026-04-30 09:36 | 18.05568 | 55.13875 | 31874 ft | 463 kts | 204° |
| 2026-04-30 09:37 | 17.99663 | 55.11229 | 31883 ft | 462 kts | 204° |
| 2026-04-30 09:37 | 17.93748 | 55.08576 | 31888 ft | 461 kts | 204° |
| 2026-04-30 09:38 | 17.87825 | 55.05921 | 31899 ft | 462 kts | 204° |
| 2026-04-30 09:38 | 17.81916 | 55.03273 | 31904 ft | 461 kts | 204° |
| 2026-04-30 09:39 | 17.75983 | 55.00616 | 31918 ft | 462 kts | 204° |
| 2026-04-30 09:39 | 17.70057 | 54.97964 | 31930 ft | 461 kts | 204° |
| 2026-04-30 09:40 | 17.64111 | 54.95305 | 31949 ft | 463 kts | 204° |
| 2026-04-30 09:40 | 17.58191 | 54.92659 | 31966 ft | 461 kts | 204° |
| 2026-04-30 09:41 | 17.52242 | 54.90002 | 31980 ft | 463 kts | 204° |
| 2026-04-30 09:41 | 17.46359 | 54.87377 | 32001 ft | 461 kts | 204° |
| 2026-04-30 09:42 | 17.40427 | 54.84731 | 32024 ft | 462 kts | 204° |
| 2026-04-30 09:42 | 17.34502 | 54.82090 | 32045 ft | 462 kts | 204° |
| 2026-04-30 09:43 | 17.28572 | 54.79448 | 32063 ft | 462 kts | 204° |
| 2026-04-30 09:43 | 17.22993 | 54.76083 | 32085 ft | 463 kts | 213° |
| 2026-04-30 09:44 | 17.17556 | 54.72435 | 32023 ft | 461 kts | 213° |
| 2026-04-30 09:44 | 17.12145 | 54.68808 | 31964 ft | 462 kts | 213° |
| 2026-04-30 09:45 | 17.06712 | 54.65173 | 31915 ft | 462 kts | 213° |
| 2026-04-30 09:45 | 17.01323 | 54.61570 | 31877 ft | 462 kts | 213° |
| 2026-04-30 09:46 | 16.95865 | 54.57924 | 31862 ft | 462 kts | 213° |
| 2026-04-30 09:46 | 16.90472 | 54.54325 | 31861 ft | 462 kts | 213° |
| 2026-04-30 09:47 | 16.85021 | 54.50689 | 31870 ft | 462 kts | 213° |
| 2026-04-30 09:47 | 16.79577 | 54.47058 | 31864 ft | 463 kts | 213° |
| 2026-04-30 09:48 | 16.74164 | 54.43451 | 31860 ft | 463 kts | 213° |
| 2026-04-30 09:48 | 16.68717 | 54.39824 | 31861 ft | 463 kts | 213° |
| 2026-04-30 09:49 | 16.63273 | 54.36201 | 31861 ft | 464 kts | 213° |
| 2026-04-30 09:49 | 16.57826 | 54.32579 | 31866 ft | 464 kts | 212° |
| 2026-04-30 09:50 | 16.52349 | 54.28939 | 31867 ft | 463 kts | 212° |
| 2026-04-30 09:50 | 16.46910 | 54.25327 | 31867 ft | 463 kts | 212° |
| 2026-04-30 09:51 | 16.41480 | 54.21724 | 31867 ft | 464 kts | 212° |
| 2026-04-30 09:51 | 16.36022 | 54.18104 | 31865 ft | 464 kts | 212° |
| 2026-04-30 09:52 | 16.30549 | 54.14477 | 31866 ft | 464 kts | 212° |
| 2026-04-30 09:52 | 16.25106 | 54.10872 | 31866 ft | 464 kts | 212° |
| 2026-04-30 09:53 | 16.19631 | 54.07249 | 31866 ft | 466 kts | 212° |
| 2026-04-30 09:53 | 16.14182 | 54.03644 | 31867 ft | 465 kts | 212° |
| 2026-04-30 09:54 | 16.08689 | 54.00014 | 31868 ft | 466 kts | 212° |
| 2026-04-30 09:54 | 16.03220 | 53.96401 | 31866 ft | 466 kts | 212° |
| 2026-04-30 09:55 | 15.97722 | 53.92772 | 31866 ft | 466 kts | 212° |
| 2026-04-30 09:55 | 15.92256 | 53.89166 | 31865 ft | 465 kts | 212° |
| 2026-04-30 09:56 | 15.86778 | 53.85552 | 31871 ft | 466 kts | 213° |
| 2026-04-30 09:56 | 15.81287 | 53.81879 | 31876 ft | 467 kts | 213° |
| 2026-04-30 09:57 | 15.75815 | 53.78219 | 31876 ft | 467 kts | 213° |
| 2026-04-30 09:57 | 15.70332 | 53.74555 | 31878 ft | 468 kts | 213° |
| 2026-04-30 09:58 | 15.64880 | 53.70915 | 31882 ft | 467 kts | 213° |
| 2026-04-30 09:58 | 15.59390 | 53.67253 | 31886 ft | 468 kts | 213° |
| 2026-04-30 09:59 | 15.48435 | 53.59952 | 31888 ft | 468 kts | 213° |
| 2026-04-30 10:00 | 15.40156 | 53.54495 | 31887 ft | 467 kts | 212° |
| 2026-04-30 10:01 | 15.31839 | 53.49175 | 31884 ft | 468 kts | 212° |
| 2026-04-30 10:02 | 15.23489 | 53.43830 | 31874 ft | 468 kts | 212° |
| 2026-04-30 10:02 | 15.17930 | 53.40272 | 31873 ft | 469 kts | 212° |
| 2026-04-30 10:03 | 15.12373 | 53.36717 | 31870 ft | 469 kts | 212° |
| 2026-04-30 10:03 | 15.06821 | 53.33167 | 31871 ft | 470 kts | 212° |
| 2026-04-30 10:04 | 15.01211 | 53.29581 | 31867 ft | 470 kts | 212° |
| 2026-04-30 10:04 | 14.95656 | 53.26033 | 31868 ft | 469 kts | 212° |
| 2026-04-30 10:05 | 14.90115 | 53.22496 | 31867 ft | 469 kts | 212° |
| 2026-04-30 10:05 | 14.84514 | 53.18922 | 31871 ft | 469 kts | 212° |
| 2026-04-30 10:06 | 14.78946 | 53.15373 | 31871 ft | 470 kts | 212° |
| 2026-04-30 10:06 | 14.73355 | 53.11809 | 31870 ft | 471 kts | 212° |
| 2026-04-30 10:07 | 14.67902 | 53.08077 | 31869 ft | 472 kts | 220° |
| 2026-04-30 10:07 | 14.63612 | 53.02977 | 31866 ft | 473 kts | 237° |
| 2026-04-30 10:08 | 14.60247 | 52.97118 | 31872 ft | 473 kts | 239° |
| 2026-04-30 10:08 | 14.56930 | 52.91269 | 31867 ft | 473 kts | 239° |
| 2026-04-30 10:09 | 14.53609 | 52.85422 | 31872 ft | 472 kts | 239° |
| 2026-04-30 10:09 | 14.50294 | 52.79590 | 31878 ft | 472 kts | 239° |
| 2026-04-30 10:10 | 14.46971 | 52.73748 | 31886 ft | 473 kts | 239° |
| 2026-04-30 10:10 | 14.43626 | 52.67872 | 31882 ft | 472 kts | 239° |
| 2026-04-30 10:11 | 14.40300 | 52.62033 | 31879 ft | 473 kts | 239° |
| 2026-04-30 10:11 | 14.36977 | 52.56206 | 31882 ft | 473 kts | 239° |
| 2026-04-30 10:12 | 14.33621 | 52.50324 | 31886 ft | 473 kts | 239° |
| 2026-04-30 10:12 | 14.30282 | 52.44477 | 31888 ft | 473 kts | 239° |
| 2026-04-30 10:13 | 14.26947 | 52.38641 | 31887 ft | 473 kts | 239° |
| 2026-04-30 10:13 | 14.23621 | 52.32825 | 31889 ft | 472 kts | 239° |
| 2026-04-30 10:14 | 14.20285 | 52.26995 | 31890 ft | 471 kts | 239° |
| 2026-04-30 10:14 | 14.15279 | 52.18256 | 31885 ft | 473 kts | 239° |
| 2026-04-30 10:15 | 14.11930 | 52.12413 | 31882 ft | 472 kts | 239° |
| 2026-04-30 10:15 | 14.08624 | 52.06650 | 31873 ft | 471 kts | 239° |
| 2026-04-30 10:16 | 14.05292 | 52.00847 | 31866 ft | 472 kts | 239° |
| 2026-04-30 10:17 | 14.00278 | 51.92120 | 31865 ft | 472 kts | 239° |
| 2026-04-30 10:17 | 13.95258 | 51.83393 | 31863 ft | 472 kts | 239° |
| 2026-04-30 10:18 | 13.91907 | 51.77573 | 31864 ft | 473 kts | 239° |
| 2026-04-30 10:19 | 13.86873 | 51.68835 | 31867 ft | 473 kts | 239° |
| 2026-04-30 10:19 | 13.83528 | 51.63035 | 31866 ft | 473 kts | 239° |
| 2026-04-30 10:20 | 13.80151 | 51.57184 | 31864 ft | 474 kts | 239° |
| 2026-04-30 10:20 | 13.75117 | 51.48469 | 31865 ft | 474 kts | 239° |
| 2026-04-30 10:21 | 13.71794 | 51.42612 | 31864 ft | 474 kts | 240° |
| 2026-04-30 10:21 | 13.68512 | 51.36751 | 31861 ft | 473 kts | 240° |
| 2026-04-30 10:22 | 13.65221 | 51.30883 | 31855 ft | 472 kts | 239° |
| 2026-04-30 10:22 | 13.61932 | 51.25028 | 31850 ft | 473 kts | 239° |
| 2026-04-30 10:23 | 13.58649 | 51.19189 | 31853 ft | 471 kts | 239° |
| 2026-04-30 10:23 | 13.55359 | 51.13343 | 31856 ft | 472 kts | 239° |
| 2026-04-30 10:24 | 13.52081 | 51.07523 | 31851 ft | 472 kts | 239° |
| 2026-04-30 10:24 | 13.48803 | 51.01708 | 31839 ft | 472 kts | 239° |
| 2026-04-30 10:25 | 13.45508 | 50.95864 | 31838 ft | 471 kts | 239° |
| 2026-04-30 10:25 | 13.42214 | 50.90030 | 31833 ft | 473 kts | 239° |
| 2026-04-30 10:26 | 13.38931 | 50.84216 | 31838 ft | 472 kts | 240° |
| 2026-04-30 10:26 | 13.35636 | 50.78386 | 31843 ft | 473 kts | 240° |
| 2026-04-30 10:27 | 13.32340 | 50.72560 | 31847 ft | 473 kts | 240° |
| 2026-04-30 10:27 | 13.29033 | 50.66716 | 31846 ft | 472 kts | 240° |
| 2026-04-30 10:28 | 13.25732 | 50.60888 | 31847 ft | 472 kts | 240° |
| 2026-04-30 10:28 | 13.22419 | 50.55041 | 31846 ft | 474 kts | 240° |
| 2026-04-30 10:29 | 13.19104 | 50.49200 | 31845 ft | 474 kts | 240° |
| 2026-04-30 10:29 | 13.15784 | 50.43378 | 31845 ft | 474 kts | 240° |
| 2026-04-30 10:30 | 13.12451 | 50.37537 | 31845 ft | 475 kts | 240° |
| 2026-04-30 10:30 | 13.09131 | 50.31724 | 31847 ft | 474 kts | 239° |
| 2026-04-30 10:31 | 13.05780 | 50.25858 | 31848 ft | 474 kts | 239° |
| 2026-04-30 10:31 | 13.02457 | 50.20046 | 31847 ft | 474 kts | 240° |
| 2026-04-30 10:32 | 12.99127 | 50.14225 | 31841 ft | 475 kts | 239° |
| 2026-04-30 10:32 | 12.95787 | 50.08390 | 31830 ft | 474 kts | 239° |
| 2026-04-30 10:33 | 12.92432 | 50.02533 | 31831 ft | 475 kts | 240° |
| 2026-04-30 10:33 | 12.89101 | 49.96721 | 31825 ft | 476 kts | 240° |
| 2026-04-30 10:34 | 12.85757 | 49.90890 | 31827 ft | 476 kts | 240° |
| 2026-04-30 10:34 | 12.82390 | 49.85024 | 31823 ft | 475 kts | 239° |
| 2026-04-30 10:35 | 12.79057 | 49.79221 | 31825 ft | 475 kts | 240° |
| 2026-04-30 10:35 | 12.75689 | 49.73360 | 31827 ft | 476 kts | 240° |
| 2026-04-30 10:36 | 12.72349 | 49.67553 | 31825 ft | 476 kts | 240° |
| 2026-04-30 10:36 | 12.68973 | 49.61685 | 31825 ft | 475 kts | 239° |
| 2026-04-30 10:37 | 12.65615 | 49.55852 | 31825 ft | 476 kts | 240° |
| 2026-04-30 10:37 | 12.62268 | 49.50043 | 31827 ft | 476 kts | 240° |
| 2026-04-30 10:38 | 12.58903 | 49.44206 | 31825 ft | 477 kts | 239° |
| 2026-04-30 10:38 | 12.55537 | 49.38371 | 31824 ft | 476 kts | 239° |
| 2026-04-30 10:39 | 12.52169 | 49.32538 | 31828 ft | 477 kts | 239° |
| 2026-04-30 10:39 | 12.48777 | 49.26666 | 31833 ft | 477 kts | 239° |
| 2026-04-30 10:40 | 12.45403 | 49.20828 | 31831 ft | 476 kts | 239° |
| 2026-04-30 10:40 | 12.42034 | 49.15002 | 31832 ft | 477 kts | 239° |
| 2026-04-30 10:41 | 12.38667 | 49.09184 | 31836 ft | 476 kts | 239° |
| 2026-04-30 10:41 | 12.35288 | 49.03349 | 31832 ft | 477 kts | 239° |
| 2026-04-30 10:42 | 12.31897 | 48.97498 | 31833 ft | 477 kts | 239° |
| 2026-04-30 10:42 | 12.28517 | 48.91668 | 31833 ft | 477 kts | 239° |
| 2026-04-30 10:43 | 12.25139 | 48.85845 | 31833 ft | 477 kts | 239° |
| 2026-04-30 10:43 | 12.21740 | 48.79990 | 31831 ft | 477 kts | 239° |
| 2026-04-30 10:44 | 12.18350 | 48.74154 | 31834 ft | 478 kts | 239° |
| 2026-04-30 10:44 | 12.14957 | 48.68317 | 31831 ft | 477 kts | 239° |
| 2026-04-30 10:45 | 12.11572 | 48.62496 | 31829 ft | 478 kts | 239° |
| 2026-04-30 10:45 | 12.08177 | 48.56662 | 31827 ft | 478 kts | 239° |
| 2026-04-30 10:46 | 12.04774 | 48.50819 | 31827 ft | 478 kts | 239° |
| 2026-04-30 10:46 | 12.02378 | 48.46608 | 31828 ft | 477 kts | 240° |